Time;durP1;ratioP1;P1;durP2;ratioP2;P2;SDS_P1;SDS_P2;PMS_P1;PMS_P2;Temp;Humidity;BMP_temperature;BMP_pressure;BME280_temperature;BME280_humidity;BME280_pressure;Samples;Min_cycle;Max_cycle;Signal;HPM_P1;HPM_P2
2022/04/07 00:01:08;;;;;;;14.15;3.28;;;11.40;99.90;;;;;;5037080;28;20033;-61
2022/04/07 00:03:34;;;;;;;15.20;3.30;;;11.40;99.90;;;;;;5036867;28;20032;-61
2022/04/07 00:06:01;;;;;;;15.38;3.33;;;11.30;99.90;;;;;;5037349;28;20556;-61
2022/04/07 00:08:27;;;;;;;13.93;3.03;;;11.40;99.90;;;;;;5032079;28;20398;-61
2022/04/07 00:10:53;;;;;;;12.40;2.80;;;11.40;99.90;;;;;;5037241;28;20087;-61
2022/04/07 00:13:19;;;;;;;12.02;2.80;;;11.50;99.90;;;;;;5036052;28;20026;-61
2022/04/07 00:15:45;;;;;;;12.75;2.65;;;11.50;99.90;;;;;;5036745;28;20084;-61
2022/04/07 00:18:10;;;;;;;11.57;2.90;;;11.50;99.90;;;;;;5036919;28;20555;-61
2022/04/07 00:20:36;;;;;;;13.75;2.83;;;11.60;99.90;;;;;;5034556;28;20093;-61
2022/04/07 00:23:03;;;;;;;12.35;2.80;;;11.40;99.90;;;;;;5035346;28;20041;-61
2022/04/07 00:25:30;;;;;;;8.68;2.55;;;11.50;99.90;;;;;;5038067;28;20082;-61
2022/04/07 00:27:56;;;;;;;18.48;3.10;;;11.50;99.90;;;;;;5036904;28;20053;-61
2022/04/07 00:30:22;;;;;;;13.60;2.80;;;11.50;99.90;;;;;;5035297;28;20060;-61
2022/04/07 00:32:49;;;;;;;11.55;2.83;;;11.50;99.90;;;;;;5035984;28;20389;-61
2022/04/07 00:35:16;;;;;;;11.57;3.17;;;11.50;99.90;;;;;;5032401;28;20080;-61
2022/04/07 00:37:42;;;;;;;15.35;3.08;;;11.50;99.90;;;;;;5037346;28;20037;-61
2022/04/07 00:40:10;;;;;;;13.60;3.53;;;11.50;99.90;;;;;;5035967;28;20041;-61
2022/04/07 00:42:46;;;;;;;12.15;3.00;;;11.50;99.90;;;;;;5036232;28;20056;-61
2022/04/07 00:45:12;;;;;;;13.82;2.75;;;11.50;99.90;;;;;;5035196;28;20055;-61
2022/04/07 00:47:38;;;;;;;13.98;3.35;;;11.50;99.90;;;;;;5032890;28;20034;-61
2022/04/07 00:50:04;;;;;;;12.20;3.00;;;11.50;99.90;;;;;;5034627;28;20029;-61
2022/04/07 00:52:31;;;;;;;10.32;3.13;;;11.40;99.90;;;;;;5035728;28;20069;-61
2022/04/07 00:54:57;;;;;;;11.05;3.17;;;11.50;99.90;;;;;;5036020;28;20032;-61
2022/04/07 00:57:24;;;;;;;14.32;3.10;;;11.40;99.90;;;;;;5035948;28;20521;-61
2022/04/07 00:59:50;;;;;;;17.40;3.50;;;11.60;99.90;;;;;;5035932;28;20351;-61
2022/04/07 01:02:16;;;;;;;12.35;3.08;;;11.60;99.90;;;;;;5032153;28;20017;-61
2022/04/07 01:04:41;;;;;;;15.57;3.42;;;11.60;99.90;;;;;;5037907;28;20029;-61
2022/04/07 01:07:08;;;;;;;12.00;3.05;;;11.60;99.90;;;;;;5035731;28;20033;-61
2022/04/07 01:09:35;;;;;;;13.20;3.72;;;11.50;99.90;;;;;;5035768;28;20030;-61
2022/04/07 01:12:01;;;;;;;15.55;3.80;;;11.50;99.90;;;;;;5035723;28;20024;-61
2022/04/07 01:14:26;;;;;;;11.35;3.22;;;11.60;99.90;;;;;;5032220;28;20029;-61
2022/04/07 01:16:52;;;;;;;12.25;3.30;;;11.50;99.90;;;;;;5036445;28;20395;-61
2022/04/07 01:19:18;;;;;;;10.75;3.22;;;11.50;99.90;;;;;;5036572;28;20458;-61
2022/04/07 01:21:44;;;;;;;11.88;3.15;;;11.50;99.90;;;;;;5035582;28;20040;-61
2022/04/07 01:24:12;;;;;;;12.95;3.30;;;11.50;99.90;;;;;;5035215;28;20108;-61
2022/04/07 01:26:40;;;;;;;12.73;3.50;;;11.60;99.90;;;;;;5032577;28;20494;-61
2022/04/07 01:29:08;;;;;;;13.82;3.17;;;11.50;99.90;;;;;;5033333;28;20025;-61
2022/04/07 01:31:34;;;;;;;15.20;3.72;;;11.60;99.90;;;;;;5035699;28;20083;-61
2022/04/07 01:34:01;;;;;;;17.33;3.15;;;11.60;99.90;;;;;;5035381;28;20032;-61
2022/04/07 01:36:29;;;;;;;10.25;3.20;;;11.60;99.90;;;;;;5035342;28;20124;-61
2022/04/07 01:38:58;;;;;;;13.02;2.95;;;11.60;99.90;;;;;;5035306;28;20032;-61
2022/04/07 01:41:25;;;;;;;12.38;3.22;;;11.60;99.90;;;;;;5031256;28;20048;-62
2022/04/07 01:43:52;;;;;;;14.20;3.22;;;11.60;99.90;;;;;;5036418;28;20434;-61
2022/04/07 01:46:20;;;;;;;11.88;3.50;;;11.60;99.90;;;;;;5036186;28;20083;-61
2022/04/07 01:48:47;;;;;;;12.63;3.00;;;11.70;99.90;;;;;;5034985;28;20459;-61
2022/04/07 01:51:13;;;;;;;12.20;2.97;;;11.70;99.90;;;;;;5034874;28;20102;-61
2022/04/07 01:53:40;;;;;;;12.52;2.90;;;11.70;99.90;;;;;;5032883;28;20486;-61
2022/04/07 01:56:06;;;;;;;15.55;3.10;;;11.70;99.90;;;;;;5032309;28;20113;-61
2022/04/07 01:58:32;;;;;;;12.32;3.25;;;11.70;99.90;;;;;;5036109;28;20498;-61
2022/04/07 02:00:59;;;;;;;13.70;3.10;;;11.70;99.90;;;;;;5034866;28;20029;-61
2022/04/07 02:03:24;;;;;;;14.80;3.40;;;11.70;99.90;;;;;;5034816;28;20038;-61
2022/04/07 02:05:50;;;;;;;13.70;3.25;;;11.70;99.90;;;;;;5032927;28;20021;-61
2022/04/07 02:08:16;;;;;;;16.58;3.35;;;11.80;99.90;;;;;;5030052;28;20030;-62
2022/04/07 02:10:41;;;;;;;12.88;3.10;;;11.70;99.90;;;;;;5036026;28;20104;-61
2022/04/07 02:13:07;;;;;;;11.77;2.63;;;11.70;99.90;;;;;;5034546;28;20478;-61
2022/04/07 02:15:33;;;;;;;13.05;3.50;;;11.70;99.90;;;;;;5034743;28;20026;-61
2022/04/07 02:17:59;;;;;;;10.27;3.38;;;11.70;99.90;;;;;;5034515;28;20052;-61
2022/04/07 02:20:25;;;;;;;16.42;3.55;;;11.70;99.90;;;;;;5031017;28;20119;-61
2022/04/07 02:22:50;;;;;;;12.32;3.17;;;11.70;99.90;;;;;;5035821;28;20092;-61
2022/04/07 02:25:16;;;;;;;13.35;2.80;;;11.80;99.90;;;;;;5033236;28;20022;-61
2022/04/07 02:27:44;;;;;;;15.23;3.17;;;11.80;99.90;;;;;;5034504;28;20079;-61
2022/04/07 02:30:14;;;;;;;12.27;3.20;;;11.80;99.90;;;;;;5034426;28;20032;-61
2022/04/07 02:32:40;;;;;;;13.65;3.20;;;11.80;99.90;;;;;;5032869;28;20029;-61
2022/04/07 02:35:07;;;;;;;14.35;3.10;;;11.80;99.90;;;;;;5031514;28;20091;-61
2022/04/07 02:37:33;;;;;;;12.60;3.45;;;11.80;99.90;;;;;;5035879;28;20506;-61
2022/04/07 02:39:59;;;;;;;13.93;3.20;;;11.80;99.90;;;;;;5034285;28;20037;-61
2022/04/07 02:42:24;;;;;;;12.80;2.75;;;11.80;99.90;;;;;;5034360;28;20075;-61
2022/04/07 02:44:50;;;;;;;15.07;2.90;;;11.80;99.90;;;;;;5032928;28;20068;-61
2022/04/07 02:47:17;;;;;;;15.75;3.03;;;11.70;99.90;;;;;;5029583;28;20034;-61
2022/04/07 02:49:43;;;;;;;13.65;2.67;;;11.80;99.90;;;;;;5035507;28;20026;-61
2022/04/07 02:52:09;;;;;;;12.88;2.80;;;11.80;99.90;;;;;;5033808;28;20029;-61
2022/04/07 02:54:35;;;;;;;11.20;2.83;;;11.80;99.90;;;;;;5034053;28;20017;-61
2022/04/07 02:57:02;;;;;;;15.45;3.00;;;11.80;99.90;;;;;;5034093;28;20040;-61
2022/04/07 02:59:28;;;;;;;11.18;3.08;;;11.80;99.90;;;;;;5030746;28;20033;-61
2022/04/07 03:01:56;;;;;;;14.07;2.85;;;11.80;99.90;;;;;;5033311;28;20390;-61
2022/04/07 03:04:24;;;;;;;16.52;3.35;;;11.90;99.90;;;;;;5033525;28;20034;-61
2022/04/07 03:06:50;;;;;;;15.40;3.33;;;11.80;99.90;;;;;;5034126;28;20025;-60
2022/04/07 03:09:17;;;;;;;14.50;3.30;;;11.80;99.90;;;;;;5035556;28;20500;-61
2022/04/07 03:11:43;;;;;;;11.60;2.70;;;11.90;99.90;;;;;;5036934;28;20025;-60
2022/04/07 03:14:09;;;;;;;14.95;3.50;;;11.80;99.90;;;;;;5035077;28;20037;-60
2022/04/07 03:16:34;;;;;;;13.65;3.00;;;11.80;99.90;;;;;;5039697;28;20044;-61
2022/04/07 03:19:00;;;;;;;11.38;3.03;;;11.80;99.90;;;;;;5037032;28;20140;-60
2022/04/07 03:21:26;;;;;;;11.95;2.88;;;11.80;99.90;;;;;;5037513;28;20397;-61
2022/04/07 03:23:52;;;;;;;16.35;3.35;;;11.80;99.90;;;;;;5036268;28;20508;-61
2022/04/07 03:26:17;;;;;;;13.05;3.28;;;11.80;99.90;;;;;;5032796;28;20040;-61
2022/04/07 03:28:43;;;;;;;15.85;3.55;;;11.80;99.90;;;;;;5039096;28;20021;-61
2022/04/07 03:31:09;;;;;;;17.88;3.22;;;11.80;99.90;;;;;;5037426;28;20033;-61
2022/04/07 03:33:35;;;;;;;15.63;3.33;;;11.80;99.90;;;;;;5037252;28;20025;-62
2022/04/07 03:36:01;;;;;;;11.40;3.17;;;11.90;99.90;;;;;;5037580;28;20044;-61
2022/04/07 03:38:27;;;;;;;14.55;3.10;;;11.90;99.90;;;;;;5033952;28;20032;-61
2022/04/07 03:40:53;;;;;;;11.20;3.10;;;11.90;99.90;;;;;;5038167;28;20112;-61
2022/04/07 03:43:18;;;;;;;14.30;3.25;;;11.90;99.90;;;;;;5038252;28;20071;-61
2022/04/07 03:45:44;;;;;;;13.40;3.17;;;11.90;99.90;;;;;;5037494;28;20029;-61
2022/04/07 03:48:10;;;;;;;11.82;3.28;;;11.90;99.90;;;;;;5037022;28;20029;-61
2022/04/07 03:50:36;;;;;;;11.57;3.05;;;11.90;99.90;;;;;;5034873;28;20502;-61
2022/04/07 03:53:02;;;;;;;17.13;3.33;;;12.00;99.90;;;;;;5035794;28;20039;-61
2022/04/07 03:55:28;;;;;;;12.82;3.22;;;12.00;99.90;;;;;;5038486;28;20044;-61
2022/04/07 03:57:53;;;;;;;12.57;3.40;;;12.00;99.90;;;;;;5037385;28;20498;-61
2022/04/07 04:00:20;;;;;;;15.95;3.33;;;11.90;99.90;;;;;;5036969;28;20118;-61
2022/04/07 04:02:46;;;;;;;12.13;3.53;;;12.00;99.90;;;;;;5034527;28;20029;-61
2022/04/07 04:05:12;;;;;;;15.20;3.15;;;11.90;99.90;;;;;;5032162;28;20168;-61
2022/04/07 04:07:37;;;;;;;14.65;3.38;;;12.00;99.90;;;;;;5038104;28;20109;-61
2022/04/07 04:10:03;;;;;;;16.05;3.47;;;11.90;99.90;;;;;;5036873;28;20041;-61
2022/04/07 04:12:29;;;;;;;15.88;3.60;;;12.00;99.90;;;;;;5036774;28;20030;-61
2022/04/07 04:14:55;;;;;;;12.18;3.28;;;12.00;99.90;;;;;;5036769;28;20025;-61
2022/04/07 04:17:21;;;;;;;14.63;3.63;;;11.90;99.90;;;;;;5032265;28;20117;-61
2022/04/07 04:19:46;;;;;;;16.63;3.05;;;11.90;99.90;;;;;;5038710;28;20029;-62
2022/04/07 04:22:12;;;;;;;12.68;3.22;;;12.00;99.90;;;;;;5036006;28;20379;-62
2022/04/07 04:24:38;;;;;;;13.98;3.47;;;12.00;99.90;;;;;;5036998;28;20017;-61
2022/04/07 04:27:05;;;;;;;9.73;3.40;;;12.00;99.90;;;;;;5036631;28;20018;-61
2022/04/07 04:29:30;;;;;;;16.88;3.30;;;12.00;99.90;;;;;;5033595;28;20033;-61
2022/04/07 04:31:56;;;;;;;14.65;3.63;;;12.00;99.90;;;;;;5036199;28;20020;-61
2022/04/07 04:34:22;;;;;;;13.77;3.25;;;12.00;99.90;;;;;;5037477;28;20494;-61
2022/04/07 04:36:47;;;;;;;17.10;3.40;;;12.00;99.90;;;;;;5036613;28;20049;-61
2022/04/07 04:39:13;;;;;;;17.35;3.85;;;12.00;99.90;;;;;;5036372;28;20405;-62
2022/04/07 04:41:39;;;;;;;17.02;3.60;;;12.00;99.90;;;;;;5033202;28;20097;-61
2022/04/07 04:44:04;;;;;;;18.92;3.30;;;12.10;99.90;;;;;;5034506;28;20029;-61
2022/04/07 04:46:30;;;;;;;15.88;3.60;;;12.10;99.90;;;;;;5036029;28;20478;-61
2022/04/07 04:48:56;;;;;;;19.45;3.47;;;12.10;99.90;;;;;;5036235;28;20033;-61
2022/04/07 04:51:22;;;;;;;15.75;4.15;;;12.10;99.90;;;;;;5036314;28;20040;-61
2022/04/07 04:53:47;;;;;;;16.55;3.65;;;12.10;99.90;;;;;;5035672;28;20047;-61
2022/04/07 04:56:13;;;;;;;15.52;3.55;;;12.00;99.90;;;;;;5031538;28;20620;-61
2022/04/07 04:58:39;;;;;;;11.98;3.30;;;12.00;99.90;;;;;;5037902;28;20025;-61
2022/04/07 05:01:04;;;;;;;14.20;3.17;;;12.00;99.90;;;;;;5035696;28;20032;-62
2022/04/07 05:03:30;;;;;;;16.70;3.42;;;12.10;99.90;;;;;;5036010;28;20537;-62
2022/04/07 05:05:56;;;;;;;15.95;3.30;;;12.00;99.90;;;;;;5036273;28;20021;-61
2022/04/07 05:08:21;;;;;;;15.55;3.30;;;12.00;99.90;;;;;;5031478;28;20479;-61
2022/04/07 05:10:47;;;;;;;15.63;3.50;;;12.00;99.90;;;;;;5038089;28;20033;-61
2022/04/07 05:13:13;;;;;;;12.50;3.30;;;12.00;99.90;;;;;;5035690;28;20057;-61
2022/04/07 05:15:39;;;;;;;13.80;3.17;;;12.00;99.90;;;;;;5035616;28;20120;-61
2022/04/07 05:18:05;;;;;;;14.85;3.70;;;12.00;99.90;;;;;;5035517;28;20029;-61
2022/04/07 05:20:31;;;;;;;16.23;3.40;;;12.00;99.90;;;;;;5031521;28;20105;-61
2022/04/07 05:22:57;;;;;;;14.93;3.58;;;12.00;99.90;;;;;;5035177;28;20450;-62
2022/04/07 05:25:23;;;;;;;13.32;3.47;;;12.00;99.90;;;;;;5035244;28;20513;-61
2022/04/07 05:27:49;;;;;;;15.48;3.10;;;12.00;99.90;;;;;;5035715;28;20426;-62
2022/04/07 05:30:17;;;;;;;14.57;3.08;;;12.00;99.90;;;;;;5035022;28;20079;-62
2022/04/07 05:32:44;;;;;;;14.48;3.15;;;12.10;99.90;;;;;;5034142;28;20068;-62
2022/04/07 05:35:13;;;;;;;12.88;3.20;;;12.10;99.90;;;;;;5031993;28;20139;-61
2022/04/07 05:37:40;;;;;;;12.32;3.15;;;12.10;99.90;;;;;;5037311;28;20482;-61
2022/04/07 05:40:10;;;;;;;13.75;3.40;;;12.00;99.90;;;;;;5035553;28;20032;-61
2022/04/07 05:42:36;;;;;;;14.30;3.28;;;12.10;99.90;;;;;;5034992;28;20061;-61
2022/04/07 05:45:02;;;;;;;9.80;2.78;;;12.10;99.90;;;;;;5035000;28;20063;-61
2022/04/07 05:47:27;;;;;;;16.55;3.30;;;12.10;99.90;;;;;;5031731;28;20025;-61
2022/04/07 05:49:57;;;;;;;11.30;3.22;;;12.10;99.90;;;;;;5035927;28;20056;-61
2022/04/07 05:52:23;;;;;;;11.95;3.10;;;12.10;99.90;;;;;;5035980;28;20498;-62
2022/04/07 05:54:48;;;;;;;12.50;2.70;;;12.10;99.90;;;;;;5034967;28;20032;-60
2022/04/07 05:57:14;;;;;;;10.52;2.90;;;12.10;99.90;;;;;;5034829;28;20145;-61
2022/04/07 05:59:40;;;;;;;11.82;3.15;;;12.10;99.90;;;;;;5031642;28;20025;-61
2022/04/07 06:02:05;;;;;;;13.45;2.85;;;12.10;99.90;;;;;;5033130;28;20025;-61
2022/04/07 06:04:31;;;;;;;13.35;3.13;;;12.10;99.90;;;;;;5034679;28;20510;-61
2022/04/07 06:06:57;;;;;;;12.48;3.05;;;12.10;99.90;;;;;;5034840;28;20029;-62
2022/04/07 06:09:22;;;;;;;10.90;2.97;;;12.20;99.90;;;;;;5034718;28;20029;-61
2022/04/07 06:11:48;;;;;;;9.90;2.90;;;12.20;99.90;;;;;;5034036;28;20462;-60
2022/04/07 06:14:14;;;;;;;11.48;2.97;;;12.20;99.90;;;;;;5030917;28;20033;-62
2022/04/07 06:16:39;;;;;;;11.52;3.22;;;12.30;99.90;;;;;;5036199;28;20056;-61
2022/04/07 06:19:05;;;;;;;12.75;2.83;;;12.30;99.90;;;;;;5034328;28;20033;-61
2022/04/07 06:21:33;;;;;;;9.68;2.75;;;12.40;99.90;;;;;;5034155;28;20160;-61
2022/04/07 06:23:59;;;;;;;11.18;2.88;;;12.40;99.90;;;;;;5034703;28;20029;-61
2022/04/07 06:26:25;;;;;;;10.57;2.90;;;12.50;99.90;;;;;;5030509;28;20395;-61
2022/04/07 06:28:51;;;;;;;10.98;2.70;;;12.50;99.90;;;;;;5035172;28;20037;-61
2022/04/07 06:31:17;;;;;;;10.75;2.90;;;12.50;99.90;;;;;;5034719;28;20025;-61
2022/04/07 06:33:43;;;;;;;8.23;2.50;;;12.60;99.90;;;;;;5034447;28;20037;-61
2022/04/07 06:36:08;;;;;;;11.18;2.70;;;12.60;99.90;;;;;;5034582;28;20065;-61
2022/04/07 06:38:34;;;;;;;8.55;2.72;;;12.70;99.90;;;;;;5030265;28;20037;-61
2022/04/07 06:41:00;;;;;;;13.32;3.17;;;12.80;99.90;;;;;;5033381;28;20026;-61
2022/04/07 06:43:27;;;;;;;10.05;2.47;;;12.90;99.90;;;;;;5033113;28;20057;-60
2022/04/07 06:45:52;;;;;;;12.13;2.90;;;13.10;99.90;;;;;;5034200;28;20083;-61
2022/04/07 06:48:18;;;;;;;9.73;2.70;;;13.10;99.90;;;;;;5034205;28;20026;-61
2022/04/07 06:50:44;;;;;;;12.68;3.00;;;13.10;99.90;;;;;;5032995;28;20025;-61
2022/04/07 06:53:13;;;;;;;9.60;3.08;;;13.10;99.90;;;;;;5031147;28;20517;-61
2022/04/07 06:55:39;;;;;;;9.38;2.92;;;13.10;99.90;;;;;;5036316;28;20045;-60
2022/04/07 06:58:06;;;;;;;12.45;3.08;;;13.10;99.90;;;;;;5033336;28;20383;-61
2022/04/07 07:00:34;;;;;;;11.10;2.72;;;13.20;99.90;;;;;;5028462;28;20116;-61
2022/04/07 07:03:02;;;;;;;11.63;3.17;;;13.10;99.90;;;;;;5028811;28;20030;-60
2022/04/07 07:05:32;;;;;;;14.38;2.95;;;13.20;99.90;;;;;;5028676;28;20033;-60
2022/04/07 07:08:10;;;;;;;14.95;3.20;;;13.20;99.90;;;;;;5030132;28;20558;-59
2022/04/07 07:10:35;;;;;;;10.13;2.60;;;13.30;99.90;;;;;;5045245;28;20033;-61
2022/04/07 07:13:01;;;;;;;9.55;2.95;;;13.40;99.90;;;;;;5028224;28;20402;-61
2022/04/07 07:15:27;;;;;;;11.98;3.20;;;13.40;99.90;;;;;;5028602;28;20581;-61
2022/04/07 07:17:53;;;;;;;12.77;2.90;;;13.50;99.90;;;;;;5032361;28;20448;-61
2022/04/07 07:20:19;;;;;;;15.20;3.20;;;13.50;99.90;;;;;;5028208;28;20110;-61
2022/04/07 07:22:45;;;;;;;13.05;3.05;;;13.50;99.90;;;;;;5035897;28;20465;-61
2022/04/07 07:25:11;;;;;;;10.32;2.75;;;13.60;99.90;;;;;;5033812;28;20072;-61
2022/04/07 07:27:37;;;;;;;13.13;3.00;;;13.70;99.90;;;;;;5033280;28;20491;-61
2022/04/07 07:30:04;;;;;;;11.50;2.90;;;13.80;99.90;;;;;;5033073;28;20154;-60
2022/04/07 07:32:30;;;;;;;11.93;3.33;;;13.80;99.90;;;;;;5030699;28;20502;-61
2022/04/07 07:34:59;;;;;;;12.48;3.38;;;13.90;99.90;;;;;;5033531;28;20025;-60
2022/04/07 07:37:25;;;;;;;10.48;2.80;;;14.10;99.90;;;;;;5034379;28;20033;-59
2022/04/07 07:39:50;;;;;;;10.13;2.95;;;14.30;99.90;;;;;;5033528;28;20036;-60
2022/04/07 07:42:16;;;;;;;12.57;2.97;;;15.00;99.90;;;;;;5033645;28;20092;-61
2022/04/07 07:44:42;;;;;;;9.27;2.70;;;17.20;99.90;;;;;;5032120;28;20033;-60
2022/04/07 07:47:08;;;;;;;8.30;2.65;;;19.00;99.90;;;;;;5030782;28;20080;-61
2022/04/07 07:49:33;;;;;;;10.50;2.35;;;20.30;99.90;;;;;;5035682;28;20044;-60
2022/04/07 07:51:59;;;;;;;10.05;2.53;;;19.30;99.90;;;;;;5033443;28;20052;-60
2022/04/07 07:54:24;;;;;;;8.20;2.83;;;17.70;99.90;;;;;;5033423;28;20444;-59
2022/04/07 07:56:50;;;;;;;6.32;2.30;;;16.90;99.90;;;;;;5033900;28;20071;-60
2022/04/07 07:59:20;;;;;;;8.70;2.38;;;16.70;99.90;;;;;;5032769;28;20036;-61
2022/04/07 08:01:46;;;;;;;10.77;2.83;;;16.20;99.90;;;;;;5038437;28;20033;-61
2022/04/07 08:04:12;;;;;;;7.82;2.75;;;16.20;99.90;;;;;;5036308;28;20040;-62
2022/04/07 08:06:39;;;;;;;8.05;2.50;;;15.70;99.90;;;;;;5036225;28;20033;-61
2022/04/07 08:09:05;;;;;;;8.68;2.88;;;15.50;99.90;;;;;;5036171;28;20021;-61
2022/04/07 08:11:31;;;;;;;8.25;2.38;;;15.30;99.90;;;;;;5033737;28;20029;-61
2022/04/07 08:13:57;;;;;;;7.85;2.35;;;15.00;99.90;;;;;;5037079;28;20022;-60
2022/04/07 08:16:23;;;;;;;11.30;3.00;;;14.70;99.90;;;;;;5037535;28;20029;-60
2022/04/07 08:18:48;;;;;;;11.77;6.13;;;14.70;99.90;;;;;;5036424;28;20402;-61
2022/04/07 08:21:14;;;;;;;9.93;3.85;;;14.70;99.90;;;;;;5036771;28;20032;-60
2022/04/07 08:23:40;;;;;;;19.10;10.65;;;14.60;99.90;;;;;;5033912;28;20116;-61
2022/04/07 08:26:05;;;;;;;18.17;8.52;;;14.60;99.90;;;;;;5034271;28;20467;-60
2022/04/07 08:28:31;;;;;;;23.83;12.23;;;14.50;99.90;;;;;;5036643;28;20407;-61
2022/04/07 08:30:57;;;;;;;11.73;6.30;;;14.40;99.90;;;;;;5036507;28;20079;-60
2022/04/07 08:33:22;;;;;;;15.30;9.98;;;14.40;99.90;;;;;;5036255;28;20794;-60
2022/04/07 08:35:48;;;;;;;9.45;4.88;;;14.40;99.90;;;;;;5034428;28;20041;-60
2022/04/07 08:38:15;;;;;;;13.93;7.80;;;14.40;99.90;;;;;;5031635;28;20045;-61
2022/04/07 08:40:42;;;;;;;10.98;6.38;;;14.50;99.90;;;;;;5037229;28;20103;-61
2022/04/07 08:43:09;;;;;;;7.22;3.88;;;14.50;99.90;;;;;;5034843;28;20383;-61
2022/04/07 08:45:40;;;;;;;8.20;2.90;;;14.60;99.90;;;;;;5036523;28;20049;-61
2022/04/07 08:48:09;;;;;;;7.00;2.25;;;14.60;99.90;;;;;;5036217;28;20054;-61
2022/04/07 08:50:35;;;;;;;10.27;2.53;;;14.80;99.90;;;;;;5033410;28;20040;-61
2022/04/07 08:53:02;;;;;;;8.40;3.63;;;14.90;99.90;;;;;;5035208;28;20021;-60
2022/04/07 08:55:27;;;;;;;8.88;2.70;;;14.80;99.90;;;;;;5037295;28;20517;-61
2022/04/07 08:57:53;;;;;;;10.48;3.83;;;14.80;99.90;;;;;;5035929;28;20038;-61
2022/04/07 09:00:20;;;;;;;8.90;4.40;;;14.70;99.90;;;;;;5035969;28;20076;-61
2022/04/07 09:02:46;;;;;;;16.45;7.80;;;14.80;99.90;;;;;;5034306;28;20226;-60
2022/04/07 09:05:12;;;;;;;11.75;4.40;;;14.50;99.90;;;;;;5032264;28;20034;-61
2022/04/07 09:07:38;;;;;;;12.23;4.75;;;14.50;99.90;;;;;;5037528;28;20037;-61
2022/04/07 09:10:05;;;;;;;13.98;6.28;;;14.30;99.90;;;;;;5035799;28;20048;-61
2022/04/07 09:12:33;;;;;;;18.70;12.75;;;14.20;99.90;;;;;;5034371;28;20029;-61
2022/04/07 09:15:00;;;;;;;22.35;15.00;;;14.20;99.90;;;;;;5034288;28;20017;-61
2022/04/07 09:17:28;;;;;;;12.98;9.20;;;14.10;99.90;;;;;;5030522;28;20464;-61
2022/04/07 09:19:53;;;;;;;18.38;12.95;;;14.10;99.90;;;;;;5036048;28;20036;-61
2022/04/07 09:22:30;;;;;;;12.63;6.68;;;14.00;99.90;;;;;;5034532;28;20393;-61
2022/04/07 09:24:55;;;;;;;9.82;3.95;;;13.90;99.90;;;;;;5035486;28;20041;-60
2022/04/07 09:27:21;;;;;;;8.98;3.85;;;14.00;99.90;;;;;;5035568;28;20033;-61
2022/04/07 09:29:47;;;;;;;8.93;3.65;;;14.20;99.90;;;;;;5033280;28;20442;-60
2022/04/07 09:32:18;;;;;;;7.03;2.90;;;14.10;99.90;;;;;;5030703;28;20038;-60
2022/04/07 09:34:45;;;;;;;8.80;3.78;;;14.20;99.90;;;;;;5037029;28;20441;-60
2022/04/07 09:37:11;;;;;;;7.65;2.70;;;14.10;99.90;;;;;;5035129;28;20041;-61
2022/04/07 09:39:39;;;;;;;10.43;3.20;;;14.30;99.90;;;;;;5035330;28;20031;-64
2022/04/07 09:42:22;;;;;;;7.15;3.20;;;14.30;99.90;;;;;;5035092;28;20029;-60
2022/04/07 09:45:01;;;;;;;6.43;2.42;;;14.30;99.90;;;;;;5034443;28;20072;-60
2022/04/07 09:47:57;;;;;;;6.97;2.40;;;14.30;99.90;;;;;;5016401;28;20048;-60
2022/04/07 09:50:32;;;;;;;8.63;2.80;;;14.40;99.90;;;;;;5010820;28;20041;-60
2022/04/07 09:53:00;;;;;;;6.93;3.50;;;14.50;99.90;;;;;;5034818;28;20076;-60
2022/04/07 09:55:29;;;;;;;7.35;3.92;;;14.60;99.90;;;;;;5035610;28;20025;-60
2022/04/07 09:57:56;;;;;;;6.40;2.47;;;14.70;99.90;;;;;;5032003;28;20490;-60
2022/04/07 10:00:23;;;;;;;8.95;3.28;;;14.80;99.90;;;;;;5033954;28;20033;-60
2022/04/07 10:02:49;;;;;;;8.85;3.53;;;14.80;99.90;;;;;;5033962;28;20025;-61
2022/04/07 10:05:16;;;;;;;9.82;2.75;;;14.80;99.90;;;;;;5030966;28;20105;-61
2022/04/07 10:07:42;;;;;;;11.32;2.88;;;14.80;99.90;;;;;;5037046;28;20029;-60
2022/04/07 10:10:08;;;;;;;6.72;2.55;;;14.80;99.90;;;;;;5034676;28;20022;-60
2022/04/07 10:12:34;;;;;;;6.78;3.05;;;14.80;99.90;;;;;;5034747;28;20074;-61
2022/04/07 10:15:02;;;;;;;10.90;4.53;;;14.70;99.90;;;;;;5034266;28;20486;-61
2022/04/07 10:17:28;;;;;;;5.07;2.10;;;14.80;99.90;;;;;;5030813;28;20040;-61
2022/04/07 10:20:00;;;;;;;9.48;2.20;;;14.90;99.90;;;;;;5034309;28;20014;-61
2022/04/07 10:22:52;;;;;;;5.55;2.20;;;14.90;99.90;;;;;;5035106;28;20037;-61
2022/04/07 10:25:18;;;;;;;6.28;2.80;;;15.10;99.90;;;;;;5034599;28;20033;-61
2022/04/07 10:28:05;;;;;;;8.30;2.65;;;15.10;99.90;;;;;;5033089;28;20029;-61
2022/04/07 10:30:32;;;;;;;8.93;2.50;;;15.10;99.90;;;;;;5033761;28;20506;-62
2022/04/07 10:32:58;;;;;;;8.85;2.78;;;15.20;99.90;;;;;;5033305;28;20433;-61
2022/04/07 10:35:27;;;;;;;8.60;2.20;;;15.10;99.90;;;;;;5027997;28;20048;-60
2022/04/07 10:37:53;;;;;;;8.63;2.50;;;15.20;99.90;;;;;;5035173;28;20046;-62
2022/04/07 10:40:34;;;;;;;8.45;2.20;;;15.40;99.90;;;;;;5031251;28;20041;-61
2022/04/07 10:43:13;;;;;;;9.80;2.45;;;15.70;99.90;;;;;;5034174;28;20091;-61
2022/04/07 10:45:40;;;;;;;7.95;2.22;;;15.70;99.90;;;;;;5033917;28;20030;-61
2022/04/07 10:48:32;;;;;;;11.70;2.25;;;16.10;99.90;;;;;;5034471;28;20049;-61
2022/04/07 10:51:05;;;;;;;14.05;2.60;;;16.60;99.90;;;;;;5034311;28;20029;-62
2022/04/07 10:53:54;;;;;;;8.32;2.78;;;16.60;99.90;;;;;;5030978;28;20390;-61
2022/04/07 10:56:41;;;;;;;8.13;2.30;;;16.60;99.90;;;;;;5010867;28;20380;-61
2022/04/07 10:59:37;;;;;;;14.20;4.20;;;16.30;99.90;;;;;;5044383;28;20444;-61
2022/04/07 11:02:03;;;;;;;10.13;4.72;;;16.00;99.90;;;;;;5043931;28;20087;-61
2022/04/07 11:04:41;;;;;;;12.73;4.78;;;16.00;99.90;;;;;;5035685;28;20026;-61
2022/04/07 11:07:16;;;;;;;12.60;5.85;;;15.90;99.90;;;;;;5033870;28;20542;-61
2022/04/07 11:09:47;;;;;;;7.85;3.05;;;15.80;99.90;;;;;;5034063;28;20108;-61
2022/04/07 11:12:39;;;;;;;9.15;3.17;;;15.70;99.90;;;;;;5032607;28;20482;-61
2022/04/07 11:15:05;;;;;;;11.95;5.57;;;15.60;99.90;;;;;;5032365;28;20429;-61
2022/04/07 11:17:36;;;;;;;9.50;2.90;;;15.60;99.90;;;;;;5030750;28;20501;-60
2022/04/07 11:20:13;;;;;;;10.93;2.90;;;15.40;99.90;;;;;;5032931;28;20049;-60
2022/04/07 11:22:48;;;;;;;9.45;2.85;;;15.50;99.90;;;;;;5035076;28;20049;-61
2022/04/07 11:25:18;;;;;;;10.50;2.63;;;15.50;99.90;;;;;;5033825;28;20026;-61
2022/04/07 11:27:45;;;;;;;8.00;2.92;;;15.50;99.90;;;;;;5033776;28;20120;-61
2022/04/07 11:30:13;;;;;;;7.53;2.20;;;15.40;99.90;;;;;;5035192;28;20362;-60
2022/04/07 11:32:59;;;;;;;9.95;3.92;;;15.20;99.90;;;;;;5035271;28;20041;-61
2022/04/07 11:35:25;;;;;;;12.30;3.67;;;15.30;99.90;;;;;;5017849;28;20038;-61
2022/04/07 11:37:51;;;;;;;17.55;9.98;;;14.80;99.90;;;;;;5039160;28;20398;-61
2022/04/07 11:40:17;;;;;;;22.52;15.13;;;14.60;99.90;;;;;;5038025;28;20053;-61
2022/04/07 11:42:42;;;;;;;21.77;17.35;;;14.60;99.90;;;;;;5037468;28;20076;-60
2022/04/07 11:45:09;;;;;;;13.68;10.00;;;14.40;99.90;;;;;;5037570;28;20021;-61
2022/04/07 11:47:37;;;;;;;13.82;7.43;;;14.30;99.90;;;;;;5034786;28;20526;-61
2022/04/07 11:50:07;;;;;;;22.90;16.17;;;14.40;99.90;;;;;;5036299;28;20068;-61
2022/04/07 11:52:35;;;;;;;17.48;13.60;;;14.40;99.90;;;;;;5037322;28;20065;-61
2022/04/07 11:55:04;;;;;;;11.55;5.82;;;14.50;99.90;;;;;;5035819;28;20025;-61
2022/04/07 11:57:31;;;;;;;16.45;10.77;;;14.40;99.90;;;;;;5037697;28;20486;-61
2022/04/07 11:59:59;;;;;;;19.90;13.35;;;14.30;99.90;;;;;;5037053;28;20029;-61
2022/04/07 12:02:25;;;;;;;9.55;5.32;;;14.20;99.90;;;;;;5032797;28;20168;-61
2022/04/07 12:05:02;;;;;;;9.93;5.05;;;14.20;99.90;;;;;;5038973;28;20493;-61
2022/04/07 12:07:29;;;;;;;21.58;15.88;;;14.10;99.90;;;;;;5038175;28;20394;-61
2022/04/07 12:10:05;;;;;;;13.05;7.82;;;14.20;99.90;;;;;;5037094;28;20127;-62
2022/04/07 12:12:30;;;;;;;11.95;6.22;;;14.20;99.90;;;;;;5036909;28;20044;-61
2022/04/07 12:14:56;;;;;;;9.70;5.78;;;14.20;99.90;;;;;;5037386;28;20016;-61
2022/04/07 12:17:22;;;;;;;6.70;3.40;;;14.30;99.90;;;;;;5032437;28;20507;-61
2022/04/07 12:19:49;;;;;;;9.57;4.47;;;14.30;99.90;;;;;;5038773;28;20028;-61
2022/04/07 12:22:16;;;;;;;9.35;2.90;;;14.20;99.90;;;;;;5036985;28;20036;-63
2022/04/07 12:25:12;;;;;;;11.90;4.43;;;14.10;99.90;;;;;;5036825;28;20117;-61
2022/04/07 12:27:38;;;;;;;9.73;3.20;;;14.20;99.90;;;;;;5032094;28;20030;-62
2022/04/07 12:30:06;;;;;;;8.27;4.50;;;14.30;99.90;;;;;;5034948;28;20035;-60
2022/04/07 12:32:44;;;;;;;14.77;8.45;;;14.70;99.90;;;;;;5031878;28;20029;-61
2022/04/07 12:35:10;;;;;;;20.45;14.15;;;14.80;99.90;;;;;;5033921;28;20419;-61
2022/04/07 12:37:38;;;;;;;13.18;7.80;;;15.00;99.90;;;;;;5038483;28;20040;-61
2022/04/07 12:40:26;;;;;;;9.70;3.83;;;15.00;99.90;;;;;;5036555;28;20114;-61